Terminal Aerodrome Forecast
Issued by NWS Omaha/Valley, NE

Home | Current Version | Previous Version | Text Only | Print | Product List | Glossary On
Versions: 1 2 3 4 5 6 7 8 9 10 11 12 13 14 15 16 17 18 19 20 21
000
FTUS43 KOAX 230149 AAA
TAFOFK
TAF AMD
KOFK 230149Z 2302/2324 27007KT P6SM BKN020
     FM230500 27006KT 3SM BR SCT250
     FM231300 24005KT P6SM SCT250=

USA.gov is the U.S. government's official web portal to all federal, state and local government web resources and services.